Soleil Weather Down

Unfortunately, due to a number of different issues, the weather site is temporarily down. Until and if, I am able to get these issues resolved I have provided the link to the nearby Metar stations at local airports. The Radar Maps and the National Weather Service Forecast are still valid from the links on the left. Thank you for your underatanding.

Nearby METAR Reports

 

KCNI - Canton/Cherokee, Georgia, USA
Distance from station: ENE 6mi, 10km
Updated: Fri, 17-Nov-2017 11:35am EST
Clear
Clear
 Wind from ESE
Wind: ESE 8 mph , 13 km/h
Temperature: 61°F , 16°C
Dew Point: 36°F , 2°C
Humidity: 39%
Barometer: 30.19 inHg , 1022.4 hPa
Clouds: Clear
Visibility: 10 miles , 16 km
2017/11/17 16:35 KCNI 171635Z AUTO 11007KT 10SM CLR 16/02 A3019 RMK AO2
KRYY - Marietta Mccolum, Georgia, USA
Distance from station: SSW 18mi, 29km
Updated: Fri, 17-Nov-2017 11:48am EST
Clear
Clear
 Wind from varies
Wind: varies 5 mph , 7 km/h
Temperature: 61°F , 16°C
Dew Point: 36°F , 2°C
Humidity: 39%
Barometer: 30.18 inHg , 1022 hPa
Clouds: Clear
Visibility: 10 miles , 16 km
2017/11/17 16:48 KRYY 171648Z VRB04KT 10SM CLR 16/02 A3018 RMK AO2 SLP942 T01610022
KVPC - Cartersville, Georgia, USA
Distance from station: WSW 22mi, 35km
Updated: Fri, 17-Nov-2017 11:53am EST
Clear
Clear
 Wind from S
Wind: S 6 mph , 9 km/h
Temperature: 63°F , 17°C
Dew Point: 39°F , 4°C
Humidity: 42%
Barometer: 30.18 inHg , 1022 hPa
Clouds: Clear
Visibility: 10 miles , 16 km
2017/11/17 16:53 KVPC 171653Z AUTO 17005KT 10SM CLR 17/04 A3018 RMK AO2 SLP213 T01670039
 
KMGE - Dobbins Afb/Mari, Georgia, USA
Distance from station: S 24mi, 39km
Updated: Fri, 17-Nov-2017 10:56am EST
Few Clouds
Few Clouds
 Wind from ESE
Wind: ESE 10 mph , 17 km/h
Temperature: 59°F , 15°C
Dew Point: 36°F , 2°C
Humidity: 42%
Barometer: 30.19 inHg , 1022.4 hPa
Clouds: Few Clouds
Visibility: 10 miles , 16 km
Cloud details: Few Clouds 25000 ft
2017/11/17 15:56 KMGE 171556Z 11009KT 10SM FEW250 15/02 A3019 RMK AO2A SLP224 T01540019 $
KPDK - Peachtree/Dekalb, Georgia, USA
Distance from station: SSE 29mi, 47km
Updated: Fri, 17-Nov-2017 11:53am EST
Clear
Clear
 Wind from SE
Wind: SE 6 mph , 9 km/h
Temperature: 61°F , 16°C
Dew Point: 37°F , 3°C
Humidity: 42%
Barometer: 30.18 inHg , 1022 hPa
Clouds: Clear
Visibility: 10 miles , 16 km
2017/11/17 16:53 KPDK 171653Z 13005KT 10SM CLR 16/03 A3018 RMK AO2 SLP220 T01610028
KFTY - Atlanta/Fulton, Georgia, USA
Distance from station: S 34mi, 54km
Updated: Fri, 17-Nov-2017 11:53am EST
Clear
Clear
 Wind from SE
Wind: SE 5 mph , 7 km/h
Temperature: 61°F , 16°C
Dew Point: 39°F , 4°C
Humidity: 45%
Barometer: 30.17 inHg , 1021.7 hPa
Clouds: Clear
Visibility: 10 miles , 16 km
2017/11/17 16:53 KFTY 171653Z 13004KT 10SM CLR 16/04 A3017 RMK AO2 SLP215 T01610039
 
KPUJ - Atlanta/Paulding, Georgia, USA
Distance from station: SW 34mi, 55km
Updated: Fri, 17-Nov-2017 11:35am EST
Clear
Clear
 Wind from SE
Wind: SE 8 mph , 13 km/h
Temperature: 63°F , 17°C
Dew Point: 45°F , 7°C
Humidity: 52%
Barometer: 30.18 inHg , 1022 hPa
Clouds: Clear
Visibility: 10 miles , 16 km
2017/11/17 16:35 KPUJ 171635Z AUTO 13007KT 10SM CLR 17/07 A3018 RMK AO2
KDNN - Dalton, Georgia, USA
Distance from station: NW 37mi, 59km
Updated: Fri, 17-Nov-2017 11:35am EST
Clear
Clear
 Wind from calm
Wind: Calm
Temperature: 55°F , 13°C
Dew Point: 41°F , 5°C
Humidity: 59%
Barometer: 30.20 inHg , 1022.7 hPa
Clouds: Clear
Visibility: 10 miles , 16 km
2017/11/17 16:35 KDNN 171635Z AUTO 00000KT 10SM CLR 13/05 A3020 RMK AO2
KLZU - Lawrenceville, Georgia, USA
Distance from station: ESE 37mi, 59km
Updated: Fri, 17-Nov-2017 10:56am EST
Clear
Clear
 Wind from E
Wind: E 12 mph , 19 km/h
Temperature: 59°F , 15°C
Dew Point: 36°F , 2°C
Humidity: 42%
Barometer: 30.21 inHg , 1023 hPa
Clouds: Clear
Visibility: 10 miles , 16 km
2017/11/17 15:56 KLZU 171556Z 10010KT 10SM CLR 15/02 A3021 RMK AO2 SLP228 T01500017 $
 
KRMG - Rome, Georgia, USA
Distance from station: W 38mi, 61km
Updated: Fri, 17-Nov-2017 11:53am EST
Clear
Clear
 Wind from varies
Wind: varies 7 mph , 11 km/h
Temperature: 61°F , 16°C
Dew Point: 39°F , 4°C
Humidity: 45%
Barometer: 30.17 inHg , 1021.7 hPa
Clouds: Clear
Visibility: 10 miles , 16 km
2017/11/17 16:53 KRMG 171653Z AUTO VRB06KT 10SM CLR 16/04 A3017 RMK AO2 SLP213 T01560039
KGVL - Gainesville, Georgia, USA
Distance from station: E 39mi, 62km
Updated: Fri, 17-Nov-2017 11:53am EST
Clear
Clear
 Wind from varies
Wind: varies 5 mph , 7 km/h
Temperature: 57°F , 14°C
Dew Point: 34°F , 1°C
Humidity: 41%
Barometer: 30.20 inHg , 1022.7 hPa
Clouds: Clear
Visibility: 10 miles , 16 km
2017/11/17 16:53 KGVL 171653Z AUTO VRB04KT 10SM CLR 14/01 A3020 RMK AO2 SLP224 T01440011
KATL - Atlanta, Georgia, USA
Distance from station: S 44mi, 71km
Updated: Fri, 17-Nov-2017 11:52am EST
Few Clouds
Few Clouds
 Wind from ESE
Wind: ESE 5 mph , 7 km/h
Temperature: 61°F , 16°C
Dew Point: 41°F , 5°C
Humidity: 48%
Barometer: 30.17 inHg , 1021.7 hPa
Clouds: Few Clouds
Visibility: 10 miles , 16 km
Cloud details: Few Clouds 25000 ft
2017/11/17 16:52 KATL 171652Z 12004KT 10SM FEW250 16/05 A3017 RMK AO2 SLP218 T01610050